Time;durP1;ratioP1;P1;durP2;ratioP2;P2;SDS_P1;SDS_P2;PMS_P1;PMS_P2;Temp;Humidity;BMP_temperature;BMP_pressure;BME280_temperature;BME280_humidity;BME280_pressure;Samples;Min_cycle;Max_cycle;Signal;HPM_P1;HPM_P2
2021/10/29 00:01:18;;;;;;;18.40;15.50;;;11.30;99.90;;;;;;5007879;28;20213;-73
2021/10/29 00:03:45;;;;;;;18.57;15.73;;;11.30;99.90;;;;;;5007805;28;20205;-73
2021/10/29 00:06:13;;;;;;;18.90;15.53;;;11.30;99.90;;;;;;5007813;28;20235;-72
2021/10/29 00:08:39;;;;;;;17.57;14.73;;;11.20;99.90;;;;;;5007086;28;20229;-72
2021/10/29 00:11:06;;;;;;;20.77;15.37;;;11.20;99.90;;;;;;5008023;28;20206;-72
2021/10/29 00:13:33;;;;;;;18.97;15.23;;;11.10;99.90;;;;;;5007462;28;20668;-72
2021/10/29 00:15:59;;;;;;;18.97;16.03;;;11.10;99.90;;;;;;5007921;28;20236;-73
2021/10/29 00:18:27;;;;;;;16.40;14.60;;;11.00;99.90;;;;;;5007622;28;20208;-72
2021/10/29 00:20:54;;;;;;;17.93;15.90;;;11.00;99.90;;;;;;5007731;28;20218;-73
2021/10/29 00:23:22;;;;;;;20.30;15.13;;;11.00;99.90;;;;;;5007642;28;20266;-73
2021/10/29 00:25:49;;;;;;;18.53;16.03;;;11.00;99.90;;;;;;5007961;28;20707;-73
2021/10/29 00:28:15;;;;;;;22.47;15.40;;;11.00;99.90;;;;;;5007617;28;20242;-72
2021/10/29 00:30:42;;;;;;;22.10;16.53;;;10.90;99.90;;;;;;5007661;28;20205;-72
2021/10/29 00:33:09;;;;;;;19.20;16.57;;;10.90;99.90;;;;;;5007627;28;20275;-73
2021/10/29 00:35:36;;;;;;;17.57;15.50;;;10.90;99.90;;;;;;5007289;28;20201;-73
2021/10/29 00:38:02;;;;;;;20.13;16.20;;;10.90;99.90;;;;;;5007544;28;20773;-72
2021/10/29 00:40:30;;;;;;;21.27;16.27;;;10.80;99.90;;;;;;5007396;28;20210;-73
2021/10/29 00:42:57;;;;;;;20.67;15.90;;;10.80;99.90;;;;;;5007181;28;20209;-72
2021/10/29 00:45:23;;;;;;;19.50;16.13;;;10.80;99.90;;;;;;5007355;28;20202;-72
2021/10/29 00:47:52;;;;;;;19.43;15.40;;;10.80;99.90;;;;;;5007114;28;20721;-72
2021/10/29 00:50:19;;;;;;;18.63;16.07;;;10.80;99.90;;;;;;5006918;28;20277;-73
2021/10/29 00:52:46;;;;;;;17.63;15.30;;;10.70;99.90;;;;;;5007369;28;20224;-73
2021/10/29 00:55:14;;;;;;;17.50;15.63;;;10.80;99.90;;;;;;5007074;28;20751;-72
2021/10/29 00:57:43;;;;;;;17.87;15.43;;;10.80;99.90;;;;;;5007122;28;20229;-72
2021/10/29 01:00:12;;;;;;;17.83;15.10;;;10.80;99.90;;;;;;5006952;28;20304;-73
2021/10/29 01:02:39;;;;;;;17.37;15.53;;;10.70;99.90;;;;;;5007117;28;20270;-72
2021/10/29 01:05:07;;;;;;;17.47;15.57;;;10.70;99.90;;;;;;5007054;28;20201;-72
2021/10/29 01:07:34;;;;;;;18.97;15.53;;;10.70;99.90;;;;;;5006977;28;20205;-72
2021/10/29 01:10:00;;;;;;;20.77;16.17;;;10.70;99.90;;;;;;5007065;28;20778;-73
2021/10/29 01:12:27;;;;;;;19.07;15.53;;;10.70;99.90;;;;;;5007025;28;20206;-72
2021/10/29 01:14:56;;;;;;;20.27;16.70;;;10.60;99.90;;;;;;5006687;28;20378;-72
2021/10/29 01:17:23;;;;;;;22.23;16.40;;;10.60;99.90;;;;;;5006486;28;20723;-72
2021/10/29 01:19:52;;;;;;;20.37;15.23;;;10.60;99.90;;;;;;5006620;28;20625;-72
2021/10/29 01:22:21;;;;;;;19.70;15.77;;;10.50;99.90;;;;;;5006129;28;20235;-72
2021/10/29 01:24:48;;;;;;;16.70;14.90;;;10.60;99.90;;;;;;5006928;28;20206;-73
2021/10/29 01:27:16;;;;;;;19.17;15.47;;;10.50;99.90;;;;;;5006887;28;20209;-73
2021/10/29 01:29:45;;;;;;;17.20;15.30;;;10.50;99.90;;;;;;5006677;28;20782;-75
2021/10/29 01:32:12;;;;;;;20.97;15.97;;;10.50;99.90;;;;;;5006989;28;20259;-75
2021/10/29 01:34:41;;;;;;;17.50;14.90;;;10.40;99.90;;;;;;5006947;28;20221;-75
2021/10/29 01:37:09;;;;;;;19.50;16.00;;;10.40;99.90;;;;;;5006330;28;20272;-75
2021/10/29 01:39:38;;;;;;;18.93;15.73;;;10.40;99.90;;;;;;5006849;28;20636;-75
2021/10/29 01:42:05;;;;;;;17.43;15.40;;;10.30;99.90;;;;;;5005908;28;20205;-75
2021/10/29 01:44:32;;;;;;;17.67;14.67;;;10.30;99.90;;;;;;5003976;28;20215;-75
2021/10/29 01:46:59;;;;;;;19.23;14.93;;;10.30;99.90;;;;;;5005000;28;20205;-74
2021/10/29 01:49:25;;;;;;;18.07;15.03;;;10.30;99.90;;;;;;5004751;28;20241;-74
2021/10/29 01:51:52;;;;;;;18.23;14.83;;;10.30;99.90;;;;;;5004748;28;20209;-75
2021/10/29 01:54:19;;;;;;;18.47;15.27;;;10.30;99.90;;;;;;5006480;28;20229;-75
2021/10/29 01:56:47;;;;;;;16.90;14.77;;;10.30;99.90;;;;;;5006494;28;20282;-75
2021/10/29 01:59:14;;;;;;;16.53;14.60;;;10.30;99.90;;;;;;5006498;28;20216;-75
2021/10/29 02:01:41;;;;;;;15.87;14.17;;;10.30;99.90;;;;;;5006329;28;20213;-75
2021/10/29 02:04:07;;;;;;;17.97;14.97;;;10.30;99.90;;;;;;5006468;28;20612;-75
2021/10/29 02:06:34;;;;;;;17.00;14.93;;;10.20;99.90;;;;;;5006272;28;20205;-75
2021/10/29 02:09:01;;;;;;;18.97;15.40;;;10.30;99.90;;;;;;5006218;28;20822;-75
2021/10/29 02:11:27;;;;;;;16.90;14.47;;;10.20;99.90;;;;;;5005954;28;20656;-75
2021/10/29 02:13:55;;;;;;;17.23;14.93;;;10.20;99.90;;;;;;5006235;28;20209;-75
2021/10/29 02:16:22;;;;;;;16.47;14.77;;;10.20;99.90;;;;;;5006096;28;20236;-75
2021/10/29 02:18:48;;;;;;;16.80;15.00;;;10.20;99.90;;;;;;5006130;28;20206;-74
2021/10/29 02:21:15;;;;;;;17.70;14.53;;;10.10;99.90;;;;;;5006188;28;20245;-75
2021/10/29 02:23:42;;;;;;;16.20;14.50;;;10.10;99.90;;;;;;5005997;28;20724;-74
2021/10/29 02:26:08;;;;;;;19.60;15.43;;;10.10;99.90;;;;;;5006524;28;20209;-74
2021/10/29 02:28:35;;;;;;;15.93;14.13;;;10.10;99.90;;;;;;5014447;28;20259;-74
2021/10/29 02:31:03;;;;;;;18.60;14.00;;;10.00;99.90;;;;;;5012517;28;20229;-73
2021/10/29 02:33:29;;;;;;;15.70;14.00;;;10.00;99.90;;;;;;5038721;28;20205;-73
2021/10/29 02:35:56;;;;;;;16.57;14.03;;;10.00;99.90;;;;;;5019313;28;20275;-73
2021/10/29 02:38:23;;;;;;;18.17;14.63;;;10.00;99.90;;;;;;5017553;28;20258;-73
2021/10/29 02:40:49;;;;;;;15.90;14.13;;;9.90;99.90;;;;;;5002789;28;20220;-73
2021/10/29 02:43:16;;;;;;;16.47;14.67;;;9.90;99.90;;;;;;5002710;28;20216;-73
2021/10/29 02:45:43;;;;;;;17.63;14.93;;;9.90;99.90;;;;;;5004295;28;20216;-73
2021/10/29 02:48:12;;;;;;;16.33;14.50;;;9.80;99.90;;;;;;5006079;28;20904;-73
2021/10/29 02:50:39;;;;;;;18.77;14.93;;;9.80;99.90;;;;;;5002141;28;20229;-73
2021/10/29 02:53:08;;;;;;;16.90;15.07;;;9.80;99.90;;;;;;5002442;28;20229;-73
2021/10/29 02:55:34;;;;;;;16.40;14.40;;;9.80;99.90;;;;;;5003182;28;20209;-72
2021/10/29 02:58:01;;;;;;;15.93;14.30;;;9.90;99.90;;;;;;5010096;28;20278;-73
2021/10/29 03:00:28;;;;;;;15.83;14.23;;;9.80;99.90;;;;;;5020908;28;20608;-73
2021/10/29 03:02:55;;;;;;;17.13;14.00;;;9.80;99.90;;;;;;5016896;28;20198;-73
2021/10/29 03:05:23;;;;;;;17.60;14.57;;;9.80;99.90;;;;;;5012566;28;20201;-73
2021/10/29 03:07:49;;;;;;;17.87;14.63;;;9.80;99.90;;;;;;5005523;28;20214;-72
2021/10/29 03:10:17;;;;;;;18.60;14.93;;;9.70;99.90;;;;;;5012429;28;20237;-72
2021/10/29 03:12:44;;;;;;;15.30;13.67;;;9.70;99.90;;;;;;5103100;28;20614;-72
2021/10/29 03:15:12;;;;;;;16.77;14.77;;;9.70;99.90;;;;;;5128563;28;20225;-73
2021/10/29 03:17:39;;;;;;;16.67;14.07;;;9.60;99.90;;;;;;5128657;27;20205;-73
2021/10/29 03:20:08;;;;;;;17.20;14.80;;;9.60;99.90;;;;;;5076080;28;20202;-73
2021/10/29 03:22:36;;;;;;;18.03;14.67;;;9.60;99.90;;;;;;5099270;27;20205;-73
2021/10/29 03:25:03;;;;;;;15.57;13.87;;;9.60;99.90;;;;;;5023531;28;20216;-72
2021/10/29 03:27:30;;;;;;;17.80;14.17;;;9.60;99.90;;;;;;5023854;28;20205;-72
2021/10/29 03:29:57;;;;;;;16.30;14.57;;;9.60;99.90;;;;;;5024032;28;20332;-73
2021/10/29 03:32:24;;;;;;;17.20;14.73;;;9.50;99.90;;;;;;5023421;28;20975;-73
2021/10/29 03:34:51;;;;;;;16.17;14.47;;;9.50;99.90;;;;;;5024031;28;20254;-72
2021/10/29 03:37:31;;;;;;;16.10;14.40;;;9.50;99.90;;;;;;5023335;28;20269;-73
2021/10/29 03:40:07;;;;;;;16.07;14.20;;;9.50;99.90;;;;;;5024722;28;20203;-73
2021/10/29 03:42:39;;;;;;;15.53;13.73;;;9.50;99.90;;;;;;5024614;28;20201;-72
2021/10/29 03:45:10;;;;;;;17.93;14.40;;;9.40;99.90;;;;;;5026644;28;20651;-73
2021/10/29 03:47:42;;;;;;;15.97;14.27;;;9.40;99.90;;;;;;5028086;28;20249;-72
2021/10/29 03:50:18;;;;;;;17.30;14.70;;;9.40;99.90;;;;;;5028126;28;20263;-73
2021/10/29 03:52:52;;;;;;;15.57;13.90;;;9.40;99.90;;;;;;5027735;28;20900;-73
2021/10/29 03:55:21;;;;;;;16.43;14.00;;;9.30;99.90;;;;;;5027809;28;20197;-73
2021/10/29 03:57:48;;;;;;;15.60;13.73;;;9.30;99.90;;;;;;5027539;28;20683;-73
2021/10/29 04:00:15;;;;;;;15.90;13.83;;;9.30;99.90;;;;;;5027659;28;20705;-73
2021/10/29 04:02:41;;;;;;;15.60;13.90;;;9.30;99.90;;;;;;5027659;28;20212;-73
2021/10/29 04:05:08;;;;;;;17.13;14.27;;;9.30;99.90;;;;;;5027798;28;20250;-73
2021/10/29 04:07:35;;;;;;;16.43;14.30;;;9.30;99.90;;;;;;5027282;28;20679;-73
2021/10/29 04:10:02;;;;;;;17.93;14.50;;;9.30;99.90;;;;;;5027581;28;20273;-72
2021/10/29 04:12:31;;;;;;;17.23;14.77;;;9.30;99.90;;;;;;5027689;28;20247;-73
2021/10/29 04:14:59;;;;;;;16.50;14.73;;;9.20;99.90;;;;;;5027458;28;20240;-73
2021/10/29 04:17:25;;;;;;;15.77;14.10;;;9.30;99.90;;;;;;5027316;28;20663;-72
2021/10/29 04:19:52;;;;;;;17.37;14.60;;;9.20;99.90;;;;;;5027786;28;20261;-73
2021/10/29 04:22:18;;;;;;;17.33;14.07;;;9.20;99.90;;;;;;5027557;28;20265;-73
2021/10/29 04:24:45;;;;;;;16.30;14.30;;;9.20;99.90;;;;;;5027546;28;20251;-73
2021/10/29 04:27:19;;;;;;;17.13;14.50;;;9.10;99.90;;;;;;5027328;28;20545;-73
2021/10/29 04:29:49;;;;;;;16.40;14.43;;;9.10;99.90;;;;;;5027389;28;20220;-73
2021/10/29 04:32:16;;;;;;;18.90;15.10;;;9.10;99.90;;;;;;5027286;28;20344;-73
2021/10/29 04:34:42;;;;;;;16.00;14.23;;;9.10;99.90;;;;;;5027190;28;20300;-73
2021/10/29 04:37:09;;;;;;;16.80;14.40;;;9.10;99.90;;;;;;5026971;28;20270;-73
2021/10/29 04:39:37;;;;;;;16.50;14.60;;;9.10;99.90;;;;;;5027164;28;20201;-73
2021/10/29 04:42:04;;;;;;;16.00;14.30;;;9.10;99.90;;;;;;5027270;28;20209;-73
2021/10/29 04:44:31;;;;;;;18.13;15.93;;;9.00;99.90;;;;;;5027105;28;20213;-73
2021/10/29 04:46:59;;;;;;;16.13;14.43;;;9.10;99.90;;;;;;5027215;28;20209;-73
2021/10/29 04:49:25;;;;;;;18.13;15.33;;;9.10;99.90;;;;;;5026984;28;20340;-73
2021/10/29 04:51:52;;;;;;;18.30;14.30;;;9.10;99.90;;;;;;5027018;28;20227;-73
2021/10/29 04:54:19;;;;;;;16.80;15.10;;;9.00;99.90;;;;;;5026604;28;20721;-73
2021/10/29 04:56:47;;;;;;;18.13;14.93;;;9.00;99.90;;;;;;5015002;28;20234;-73
2021/10/29 04:59:15;;;;;;;15.93;14.37;;;8.90;99.90;;;;;;5006423;28;20581;-73
2021/10/29 05:01:43;;;;;;;16.23;13.63;;;8.90;99.90;;;;;;5007212;28;20213;-73
2021/10/29 05:04:11;;;;;;;17.13;15.10;;;8.90;99.90;;;;;;5007239;28;20209;-73
2021/10/29 05:06:38;;;;;;;17.17;15.13;;;8.80;99.90;;;;;;5006809;28;20213;-72
2021/10/29 05:09:05;;;;;;;16.90;14.77;;;8.80;99.90;;;;;;5007090;28;20206;-73
2021/10/29 05:11:31;;;;;;;16.27;14.17;;;8.80;99.90;;;;;;5006940;28;20280;-73
2021/10/29 05:13:58;;;;;;;15.70;14.00;;;8.70;99.90;;;;;;5006828;28;20621;-73
2021/10/29 05:16:25;;;;;;;19.03;15.27;;;8.70;99.90;;;;;;5006960;28;20202;-73
2021/10/29 05:18:51;;;;;;;17.23;15.30;;;8.70;99.90;;;;;;5007049;28;20243;-73
2021/10/29 05:21:19;;;;;;;16.60;14.90;;;8.80;99.90;;;;;;5006632;28;20209;-72
2021/10/29 05:23:46;;;;;;;17.70;14.63;;;8.70;99.90;;;;;;5007108;28;20213;-73
2021/10/29 05:26:12;;;;;;;16.97;14.97;;;8.70;99.90;;;;;;5006799;28;20244;-73
2021/10/29 05:28:39;;;;;;;16.57;14.87;;;8.70;99.90;;;;;;5007125;28;20209;-73
2021/10/29 05:31:06;;;;;;;17.63;15.00;;;8.70;99.90;;;;;;5006680;28;20232;-72
2021/10/29 05:33:33;;;;;;;16.27;14.57;;;8.70;99.90;;;;;;5006717;28;20233;-73
2021/10/29 05:36:00;;;;;;;18.23;15.70;;;8.70;99.90;;;;;;5006345;28;20714;-73
2021/10/29 05:38:28;;;;;;;17.67;15.50;;;8.70;99.90;;;;;;5006789;28;20201;-73
2021/10/29 05:40:55;;;;;;;16.93;15.00;;;8.70;99.90;;;;;;5006760;28;20206;-72
2021/10/29 05:43:22;;;;;;;16.90;14.93;;;8.70;99.90;;;;;;5006289;28;20210;-73
2021/10/29 05:45:48;;;;;;;16.80;15.00;;;8.70;99.90;;;;;;5006797;28;20608;-73
2021/10/29 05:48:15;;;;;;;17.87;15.03;;;8.60;99.90;;;;;;5006546;28;20258;-73
2021/10/29 05:50:47;;;;;;;18.03;15.20;;;8.60;99.90;;;;;;5006210;28;20234;-73
2021/10/29 05:53:20;;;;;;;23.90;15.13;;;8.60;99.90;;;;;;5006664;28;20233;-73
2021/10/29 05:55:48;;;;;;;18.83;14.77;;;8.60;99.90;;;;;;5006415;28;20282;-73
2021/10/29 05:58:15;;;;;;;18.20;15.70;;;8.60;99.90;;;;;;5006451;28;20296;-73
2021/10/29 06:00:42;;;;;;;16.63;14.53;;;8.60;99.90;;;;;;5005794;28;20209;-73
2021/10/29 06:03:09;;;;;;;18.57;15.90;;;8.50;99.90;;;;;;5005944;28;20206;-73
2021/10/29 06:05:36;;;;;;;19.63;15.27;;;8.60;99.90;;;;;;5006123;28;20570;-73
2021/10/29 06:08:02;;;;;;;17.90;15.50;;;8.50;99.90;;;;;;5005676;28;20237;-73
2021/10/29 06:10:29;;;;;;;16.80;15.07;;;8.50;99.90;;;;;;5006079;28;20225;-73
2021/10/29 06:12:57;;;;;;;17.23;14.93;;;8.50;99.90;;;;;;5006026;28;20620;-72
2021/10/29 06:15:24;;;;;;;19.37;15.20;;;8.50;99.90;;;;;;5006038;28;20221;-73
2021/10/29 06:17:51;;;;;;;17.07;14.83;;;8.50;99.90;;;;;;5006178;28;20825;-73
2021/10/29 06:20:18;;;;;;;18.47;15.20;;;8.50;99.90;;;;;;5006131;28;20213;-73
2021/10/29 06:22:47;;;;;;;18.43;15.03;;;8.50;99.90;;;;;;5006143;28;20209;-73
2021/10/29 06:25:17;;;;;;;18.07;15.03;;;8.50;99.90;;;;;;5005653;28;20668;-73
2021/10/29 06:30:30;;;;;;;19.83;15.50;;;8.40;99.90;;;;;;5005325;28;20240;-73
2021/10/29 06:32:57;;;;;;;18.43;15.10;;;8.40;99.90;;;;;;5005698;28;20263;-73
2021/10/29 06:35:24;;;;;;;17.43;15.27;;;8.30;99.90;;;;;;5005547;28;20740;-73
2021/10/29 06:37:50;;;;;;;18.27;15.30;;;8.40;99.90;;;;;;5005455;28;20241;-72
2021/10/29 06:40:17;;;;;;;16.70;14.83;;;8.40;99.90;;;;;;5006036;28;20227;-73
2021/10/29 06:42:49;;;;;;;17.13;15.27;;;8.30;99.90;;;;;;5005745;28;20206;-73
2021/10/29 06:45:34;;;;;;;17.33;15.30;;;8.30;99.90;;;;;;5005947;28;20190;-73
2021/10/29 06:48:16;;;;;;;16.50;14.70;;;8.30;99.90;;;;;;5005915;28;20202;-73
2021/10/29 06:59:17;;;;;;;16.87;15.07;;;8.40;99.90;;;;;;5005268;28;20231;-73
2021/10/29 07:01:48;;;;;;;17.33;15.43;;;8.40;99.90;;;;;;5005423;28;20194;-73
2021/10/29 07:04:31;;;;;;;17.03;15.23;;;8.30;99.90;;;;;;5005468;28;20259;-73
2021/10/29 07:40:00;;;;;;;18.67;15.10;;;9.00;99.90;;;;;;5008322;28;20205;-73
2021/10/29 07:42:31;;;;;;;15.80;14.10;;;9.00;99.90;;;;;;5008062;28;20947;-74
2021/10/29 07:44:58;;;;;;;16.67;15.00;;;9.10;99.90;;;;;;5008540;28;20194;-73
2021/10/29 07:47:25;;;;;;;17.37;13.93;;;9.20;99.90;;;;;;5008043;28;20205;-73
2021/10/29 07:49:52;;;;;;;16.90;14.60;;;9.20;99.90;;;;;;5007921;28;20667;-73
2021/10/29 07:52:20;;;;;;;17.87;14.70;;;9.30;99.90;;;;;;5007856;28;20801;-73
2021/10/29 07:54:47;;;;;;;16.37;14.67;;;9.40;99.90;;;;;;5008142;28;20233;-73
2021/10/29 07:57:17;;;;;;;17.97;15.03;;;9.40;99.90;;;;;;5008252;28;20254;-73
2021/10/29 07:59:44;;;;;;;16.00;14.30;;;9.40;99.90;;;;;;5007762;28;20640;-73
2021/10/29 08:02:11;;;;;;;16.17;14.37;;;9.40;99.90;;;;;;5008139;28;20364;-73
2021/10/29 08:04:38;;;;;;;16.00;14.30;;;9.50;99.90;;;;;;5008104;28;20217;-73
2021/10/29 08:07:05;;;;;;;16.17;14.40;;;9.50;99.90;;;;;;5008228;28;20263;-73
2021/10/29 08:09:33;;;;;;;16.53;14.83;;;9.60;99.90;;;;;;5007970;28;20266;-73
2021/10/29 08:11:59;;;;;;;16.33;13.63;;;9.60;99.90;;;;;;5007950;28;20263;-73
2021/10/29 08:14:26;;;;;;;15.77;14.17;;;9.70;99.90;;;;;;5007556;28;20248;-73
2021/10/29 08:16:53;;;;;;;15.77;14.13;;;9.70;99.90;;;;;;5007913;28;20206;-73
2021/10/29 08:19:24;;;;;;;17.10;14.83;;;9.80;99.90;;;;;;5007639;28;20675;-73
2021/10/29 08:21:51;;;;;;;15.43;13.80;;;9.90;99.90;;;;;;5008018;28;20225;-73
2021/10/29 08:24:18;;;;;;;16.27;14.57;;;9.90;99.90;;;;;;5007737;28;20666;-73
2021/10/29 08:26:46;;;;;;;16.97;13.70;;;9.90;99.90;;;;;;5008107;28;20209;-73
2021/10/29 08:29:13;;;;;;;15.60;14.00;;;10.00;99.90;;;;;;5007512;28;20220;-73
2021/10/29 08:31:39;;;;;;;16.20;14.50;;;10.10;99.90;;;;;;5007394;28;20718;-73
2021/10/29 08:34:06;;;;;;;15.97;14.30;;;10.20;99.90;;;;;;5007609;28;20197;-73
2021/10/29 08:36:36;;;;;;;15.57;13.63;;;10.20;99.90;;;;;;5007141;28;20290;-73
2021/10/29 08:39:06;;;;;;;14.80;13.20;;;10.20;99.90;;;;;;5007684;28;20263;-72
2021/10/29 08:41:33;;;;;;;16.30;13.70;;;10.30;99.90;;;;;;5007368;28;20210;-73
2021/10/29 08:44:01;;;;;;;14.87;13.17;;;10.40;99.90;;;;;;5007512;28;20209;-73
2021/10/29 08:46:29;;;;;;;17.03;13.70;;;10.50;99.90;;;;;;5006951;28;20215;-73
2021/10/29 08:48:57;;;;;;;14.13;12.63;;;10.50;99.90;;;;;;5007512;28;20210;-73
2021/10/29 08:51:24;;;;;;;14.70;13.17;;;10.50;99.90;;;;;;5006308;28;20264;-73
2021/10/29 08:53:52;;;;;;;15.93;13.43;;;10.60;99.90;;;;;;5007144;28;20301;-73
2021/10/29 08:56:19;;;;;;;15.57;13.07;;;10.80;99.90;;;;;;5007139;28;20233;-73
2021/10/29 08:59:09;;;;;;;14.20;12.77;;;10.80;99.90;;;;;;5007317;28;20206;-73
2021/10/29 09:01:57;;;;;;;14.90;13.40;;;10.90;99.90;;;;;;5006772;28;20943;-73
2021/10/29 09:04:36;;;;;;;14.63;13.13;;;10.90;99.90;;;;;;5007098;28;20247;-73
2021/10/29 09:07:17;;;;;;;14.70;13.13;;;11.00;99.90;;;;;;5006556;28;20194;-73
2021/10/29 09:10:06;;;;;;;14.40;12.90;;;11.10;99.90;;;;;;5006920;28;20240;-72
2021/10/29 09:32:26;;;;;;;12.90;11.60;;;12.10;99.90;;;;;;5006293;28;20225;-73
2021/10/29 09:34:58;;;;;;;13.20;11.90;;;12.20;99.90;;;;;;5006824;28;20252;-74
2021/10/29 09:37:34;;;;;;;12.93;11.73;;;12.30;99.90;;;;;;5005919;28;20723;-73
2021/10/29 09:40:02;;;;;;;12.50;11.30;;;12.40;99.90;;;;;;5006274;28;20597;-73
2021/10/29 09:42:36;;;;;;;12.03;10.83;;;12.50;99.90;;;;;;5005653;28;20209;-73
2021/10/29 09:45:13;;;;;;;12.13;11.03;;;12.60;99.90;;;;;;5006693;28;20279;-74
2021/10/29 09:47:46;;;;;;;12.13;11.03;;;12.70;99.90;;;;;;5006455;28;20220;-73
2021/10/29 09:50:23;;;;;;;12.70;11.40;;;12.90;99.90;;;;;;5006141;28;20716;-73
2021/10/29 09:53:03;;;;;;;11.00;10.00;;;12.90;99.90;;;;;;5005861;28;20955;-73
2021/10/29 09:55:50;;;;;;;11.83;10.73;;;13.10;99.90;;;;;;5006519;28;20229;-73
2021/10/29 09:58:18;;;;;;;11.73;10.63;;;13.20;99.90;;;;;;5006544;28;20201;-73
2021/10/29 10:00:45;;;;;;;12.50;10.80;;;13.30;99.90;;;;;;5005980;28;20270;-73
2021/10/29 10:03:16;;;;;;;11.93;10.60;;;13.40;99.90;;;;;;5006299;28;20213;-73
2021/10/29 10:05:45;;;;;;;11.03;9.97;;;13.40;99.90;;;;;;5006304;28;20284;-73
2021/10/29 10:08:13;;;;;;;11.53;10.40;;;13.50;99.90;;;;;;5006270;28;20221;-73
2021/10/29 10:10:45;;;;;;;11.10;10.00;;;13.60;99.90;;;;;;5006044;28;20251;-73
2021/10/29 10:13:13;;;;;;;10.90;9.90;;;13.60;99.90;;;;;;5006072;28;20248;-73
2021/10/29 10:15:40;;;;;;;10.03;9.13;;;13.70;99.90;;;;;;5006063;28;20313;-73
2021/10/29 10:18:08;;;;;;;11.33;10.00;;;13.80;99.90;;;;;;5005722;28;20569;-74
2021/10/29 10:20:36;;;;;;;10.80;9.80;;;13.90;99.90;;;;;;5005510;28;20212;-73
2021/10/29 10:23:06;;;;;;;11.20;10.10;;;14.00;99.90;;;;;;5006164;28;20205;-73
2021/10/29 10:25:42;;;;;;;10.10;9.20;;;14.10;99.90;;;;;;5005477;28;20206;-73
2021/10/29 10:31:10;;;;;;;10.90;9.43;;;14.30;99.90;;;;;;5006034;28;20274;-73
2021/10/29 10:45:19;;;;;;;10.63;9.50;;;14.80;99.90;;;;;;5005377;28;20250;-74
2021/10/29 10:47:50;;;;;;;10.60;9.60;;;14.90;99.90;;;;;;5005714;28;20232;-73
2021/10/29 10:50:21;;;;;;;10.40;9.50;;;15.10;99.90;;;;;;5005793;28;20197;-73
2021/10/29 10:53:22;;;;;;;10.20;9.30;;;15.20;99.90;;;;;;5006132;28;20237;-73
2021/10/29 10:56:07;;;;;;;10.10;9.10;;;15.30;99.90;;;;;;5009207;28;20256;-73
2021/10/29 10:58:48;;;;;;;10.93;9.67;;;15.40;99.90;;;;;;5009168;28;20204;-73
2021/10/29 11:01:36;;;;;;;11.43;9.00;;;15.40;99.90;;;;;;5009182;28;20197;-73
2021/10/29 11:07:08;;;;;;;9.87;9.00;;;15.50;99.90;;;;;;4999638;28;20209;-73
2021/10/29 11:10:00;;;;;;;9.80;8.80;;;15.60;99.90;;;;;;5008915;28;20256;-73
2021/10/29 11:13:09;;;;;;;10.43;9.33;;;15.70;99.90;;;;;;5008496;28;20229;-73
2021/10/29 11:15:36;;;;;;;9.60;8.80;;;15.80;99.90;;;;;;5008521;28;20644;-73
2021/10/29 11:18:25;;;;;;;10.03;9.13;;;15.90;99.90;;;;;;5008769;28;20225;-73
2021/10/29 11:20:53;;;;;;;12.20;9.20;;;16.10;99.90;;;;;;5008945;28;20225;-73
2021/10/29 11:23:23;;;;;;;10.37;9.37;;;16.10;99.90;;;;;;5008698;28;20209;-73
2021/10/29 11:25:58;;;;;;;9.40;8.30;;;16.30;99.90;;;;;;5008576;28;20735;-73
2021/10/29 11:28:30;;;;;;;9.73;8.73;;;16.40;99.90;;;;;;5008537;28;20288;-73
2021/10/29 11:30:59;;;;;;;10.40;9.10;;;16.50;99.90;;;;;;5008554;28;20252;-73
2021/10/29 11:33:27;;;;;;;17.87;9.93;;;16.50;99.90;;;;;;5008345;28;20235;-73
2021/10/29 11:35:59;;;;;;;12.93;9.20;;;16.50;99.90;;;;;;5008575;28;20778;-73
2021/10/29 11:38:26;;;;;;;11.67;8.17;;;16.60;99.90;;;;;;5008504;28;20223;-73
2021/10/29 11:40:54;;;;;;;11.27;9.47;;;16.70;99.90;;;;;;5008370;28;20221;-73
2021/10/29 11:43:23;;;;;;;10.53;9.50;;;16.90;99.90;;;;;;5008015;28;20664;-73
2021/10/29 11:45:50;;;;;;;9.70;8.70;;;17.00;99.90;;;;;;5008036;28;20213;-73
2021/10/29 11:48:17;;;;;;;10.83;9.83;;;17.10;99.90;;;;;;5008429;28;20209;-73
2021/10/29 11:50:44;;;;;;;11.73;9.33;;;17.10;99.90;;;;;;5007936;28;20234;-73
2021/10/29 11:53:12;;;;;;;9.67;8.67;;;17.10;99.90;;;;;;5008255;28;20237;-73
2021/10/29 11:55:42;;;;;;;10.13;9.10;;;17.20;99.90;;;;;;5008121;28;20300;-73
2021/10/29 11:58:14;;;;;;;9.70;8.80;;;17.30;99.90;;;;;;5007996;28;20270;-73
2021/10/29 12:00:50;;;;;;;10.53;9.20;;;17.40;99.90;;;;;;5007864;28;20201;-73
2021/10/29 12:08:48;;;;;;;9.77;8.87;;;17.60;99.90;;;;;;5007430;28;20213;-73
2021/10/29 12:11:19;;;;;;;9.27;8.47;;;17.70;99.90;;;;;;5007699;28;20210;-73
2021/10/29 12:13:47;;;;;;;9.37;8.53;;;17.80;99.90;;;;;;5007673;28;20262;-73
2021/10/29 12:16:17;;;;;;;10.03;9.10;;;17.90;99.90;;;;;;5008073;28;20209;-73
2021/10/29 12:18:59;;;;;;;9.53;8.60;;;17.90;99.90;;;;;;5007769;28;20672;-73
2021/10/29 12:21:29;;;;;;;12.00;9.47;;;17.90;99.90;;;;;;5007250;28;20202;-73
2021/10/29 12:23:56;;;;;;;15.97;9.80;;;18.10;99.90;;;;;;5008127;28;20290;-73
2021/10/29 12:26:28;;;;;;;14.27;9.47;;;18.20;99.90;;;;;;5007741;28;20254;-73
2021/10/29 12:28:58;;;;;;;11.50;10.50;;;18.30;99.90;;;;;;5007646;28;20244;-73
2021/10/29 12:31:34;;;;;;;12.10;10.87;;;18.30;99.90;;;;;;5007395;28;20220;-73
2021/10/29 12:34:26;;;;;;;10.77;9.67;;;18.40;99.90;;;;;;5007227;28;20300;-73
2021/10/29 12:54:07;;;;;;;10.40;9.50;;;18.70;99.90;;;;;;5007038;28;20284;-72
2021/10/29 13:01:25;;;;;;;11.67;9.97;;;18.60;99.90;;;;;;5007007;28;20201;-73
2021/10/29 13:02:21;;;;;;;10.17;9.20;;;18.70;99.90;;;;;;5007098;28;20205;-72
2021/10/29 13:04:53;;;;;;;9.80;8.90;;;18.60;99.90;;;;;;5007146;28;20194;-73
2021/10/29 13:07:25;;;;;;;11.90;8.83;;;18.70;99.90;;;;;;5006791;28;20226;-73
2021/10/29 13:09:51;;;;;;;10.57;9.47;;;18.80;99.90;;;;;;5007016;28;20202;-73
2021/10/29 13:12:25;;;;;;;9.97;9.17;;;18.80;99.90;;;;;;5006787;28;20245;-73
2021/10/29 13:14:56;;;;;;;10.63;9.63;;;18.70;99.90;;;;;;5007160;28;20190;-73
2021/10/29 13:17:29;;;;;;;10.50;9.60;;;18.70;99.90;;;;;;5005307;28;20197;-73
2021/10/29 13:20:20;;;;;;;10.90;8.93;;;18.70;99.90;;;;;;5006709;28;20231;-73
2021/10/29 13:26:02;;;;;;;10.83;9.83;;;18.90;99.90;;;;;;4967437;28;20217;-73
2021/10/29 13:28:31;;;;;;;10.80;9.60;;;18.90;99.90;;;;;;5023712;28;20328;-74
2021/10/29 13:36:36;;;;;;;13.00;11.80;;;19.00;99.90;;;;;;5023455;28;20603;-73
2021/10/29 13:52:55;;;;;;;12.73;11.43;;;19.00;99.90;;;;;;5023135;28;20596;-73
2021/10/29 13:55:44;;;;;;;13.13;11.87;;;19.10;99.90;;;;;;5023526;28;20275;-73
2021/10/29 13:58:38;;;;;;;13.23;12.00;;;19.00;99.90;;;;;;5023650;28;20193;-73
2021/10/29 14:28:52;;;;;;;16.03;13.73;;;18.60;99.90;;;;;;5003224;28;20282;-74
2021/10/29 14:31:24;;;;;;;15.60;13.37;;;18.50;99.90;;;;;;5003363;28;20670;-74
2021/10/29 14:33:54;;;;;;;13.73;12.47;;;18.50;99.90;;;;;;5003333;28;20289;-74
2021/10/29 14:36:24;;;;;;;14.03;12.63;;;18.40;99.90;;;;;;5002937;28;20245;-73
2021/10/29 14:38:58;;;;;;;13.83;12.43;;;18.40;99.90;;;;;;5003078;28;21041;-74
2021/10/29 14:41:34;;;;;;;14.13;12.73;;;18.20;99.90;;;;;;5003375;28;20201;-74
2021/10/29 14:44:05;;;;;;;13.30;11.93;;;18.20;99.90;;;;;;5003571;28;20197;-73
2021/10/29 14:46:41;;;;;;;14.17;12.87;;;18.10;99.90;;;;;;5003125;28;20206;-73
2021/10/29 14:49:21;;;;;;;15.23;12.93;;;18.10;99.90;;;;;;5003527;28;20217;-73
2021/10/29 14:52:08;;;;;;;13.43;12.10;;;17.90;99.90;;;;;;5003282;28;20229;-73
2021/10/29 15:00:32;;;;;;;12.67;11.33;;;17.30;99.90;;;;;;5002778;28;20220;-73
2021/10/29 15:03:22;;;;;;;12.90;11.60;;;17.20;99.90;;;;;;5002676;28;20205;-73
2021/10/29 15:28:09;;;;;;;15.47;11.73;;;16.10;99.90;;;;;;5016011;27;20277;-72
2021/10/29 15:30:41;;;;;;;12.47;11.13;;;16.00;99.90;;;;;;5022535;28;20284;-72
2021/10/29 15:33:21;;;;;;;13.10;11.67;;;16.10;99.90;;;;;;5022398;28;20213;-72
2021/10/29 15:41:34;;;;;;;12.47;11.17;;;15.80;99.90;;;;;;5025119;28;20196;-72
2021/10/29 15:44:08;;;;;;;13.83;12.50;;;15.70;99.90;;;;;;5026334;28;20204;-72
2021/10/29 15:46:40;;;;;;;12.67;11.47;;;15.70;99.90;;;;;;5026363;28;20258;-72
2021/10/29 15:49:18;;;;;;;15.93;12.33;;;15.60;99.90;;;;;;5026486;28;20204;-72
2021/10/29 15:51:49;;;;;;;15.33;11.90;;;15.50;99.90;;;;;;5025554;28;20201;-72
2021/10/29 15:54:16;;;;;;;14.00;12.13;;;15.40;99.90;;;;;;5025311;28;20243;-72
2021/10/29 15:56:46;;;;;;;13.77;12.33;;;15.30;99.90;;;;;;5024766;28;20312;-72
2021/10/29 15:59:23;;;;;;;13.67;11.47;;;15.20;99.90;;;;;;5025758;28;20291;-72